Time;durP1;ratioP1;P1;durP2;ratioP2;P2;SDS_P1;SDS_P2;PMS_P1;PMS_P2;Temp;Humidity;BMP_temperature;BMP_pressure;BME280_temperature;BME280_humidity;BME280_pressure;Samples;Min_cycle;Max_cycle;Signal;HPM_P1;HPM_P2
2022/12/20 00:00:48;;;;;;;;;;;;;;;;;;4959753;28;19929;-91
2022/12/20 00:03:14;;;;;;;;;;;;;;;;;;4978844;28;19922;-90
2022/12/20 00:05:40;;;;;;;;;;;;;;;;;;4978673;28;19969;-91
2022/12/20 00:08:06;;;;;;;;;;;;;;;;;;4962632;28;20008;-91
2022/12/20 00:10:31;;;;;;;;;;;;;;;;;;4978488;28;19921;-91
2022/12/20 00:12:57;;;;;;;;;;;;;;;;;;4962503;28;19922;-93
2022/12/20 00:15:23;;;;;;;;;;;;;;;;;;4962385;28;20384;-91
2022/12/20 00:17:50;;;;;;;;;;;;;;;;;;4962344;28;19922;-91
2022/12/20 00:20:16;;;;;;;;;;;;;;;;;;4962314;28;20020;-91
2022/12/20 00:22:42;;;;;;;;;;;;;;;;;;4962321;28;19973;-91
2022/12/20 00:25:08;;;;;;;;;;;;;;;;;;4962211;28;20003;-92
2022/12/20 00:27:34;;;;;;;;;;;;;;;;;;4962203;28;19925;-91
2022/12/20 00:30:00;;;;;;;;;;;;;;;;;;4962011;28;20393;-90
2022/12/20 00:32:26;;;;;;;;;;;;;;;;;;4961906;28;19930;-91
2022/12/20 00:34:52;;;;;;;;;;;;;;;;;;4978113;28;19922;-91
2022/12/20 00:37:18;;;;;;;;;;;;;;;;;;4962397;28;19980;-91
2022/12/20 00:39:44;;;;;;;;;;;;;;;;;;4978478;28;19926;-90
2022/12/20 00:42:09;;;;;;;;;;;;;;;;;;4962076;28;19922;-90
2022/12/20 00:44:35;;;;;;;;;;;;;;;;;;4978004;28;19926;-91
2022/12/20 00:47:01;;;;;;;;;;;;;;;;;;4962075;28;19929;-91
2022/12/20 00:49:27;;;;;;;;;;;;;;;;;;4978449;28;19922;-92
2022/12/20 00:51:53;;;;;;;;;;;;;;;;;;4961717;28;19922;-91
2022/12/20 00:54:20;;;;;;;;;;;;;;;;;;4961889;28;19922;-92
2022/12/20 00:56:46;;;;;;;;;;;;;;;;;;4961932;28;19989;-89
2022/12/20 00:59:12;;;;;;;;;;;;;;;;;;4961729;28;19922;-91
2022/12/20 01:01:38;;;;;;;;;;;;;;;;;;4961410;28;20016;-91
2022/12/20 01:04:04;;;;;;;;;;;;;;;;;;4977393;28;19965;-91
2022/12/20 01:06:30;;;;;;;;;;;;;;;;;;4961328;28;20015;-90
2022/12/20 01:08:56;;;;;;;;;;;;;;;;;;4961297;28;19929;-89
2022/12/20 01:11:21;;;;;;;;;;;;;;;;;;4961112;28;19945;-90
2022/12/20 01:13:47;;;;;;;;;;;;;;;;;;4960005;28;20004;-89
2022/12/20 01:16:13;;;;;;;;;;;;;;;;;;4961660;28;20012;-90
2022/12/20 01:18:40;;;;;;;;;;;;;;;;;;4961296;28;19922;-91
2022/12/20 01:21:07;;;;;;;;;;;;;;;;;;4961629;28;19929;-90
2022/12/20 01:23:33;;;;;;;;;;;;;;;;;;4961487;28;19972;-90
2022/12/20 01:25:59;;;;;;;;;;;;;;;;;;4961019;28;19929;-92
2022/12/20 01:28:24;;;;;;;;;;;;;;;;;;4977372;28;19922;-91
2022/12/20 01:30:50;;;;;;;;;;;;;;;;;;4977513;28;20272;-91
2022/12/20 01:33:16;;;;;;;;;;;;;;;;;;4976880;28;20016;-91
2022/12/20 01:35:42;;;;;;;;;;;;;;;;;;4976802;28;19921;-90
2022/12/20 01:38:08;;;;;;;;;;;;;;;;;;4961363;28;19922;-90
2022/12/20 01:40:34;;;;;;;;;;;;;;;;;;4976800;28;20421;-90
2022/12/20 01:43:00;;;;;;;;;;;;;;;;;;4960630;28;20075;-90
2022/12/20 01:45:26;;;;;;;;;;;;;;;;;;4976717;28;19969;-90
2022/12/20 01:47:52;;;;;;;;;;;;;;;;;;4960419;28;19949;-89
2022/12/20 01:50:18;;;;;;;;;;;;;;;;;;4960672;28;19921;-90
2022/12/20 01:52:43;;;;;;;;;;;;;;;;;;4976661;28;20346;-90
2022/12/20 01:55:09;;;;;;;;;;;;;;;;;;4960449;28;20259;-92
2022/12/20 01:57:35;;;;;;;;;;;;;;;;;;4960491;28;19921;-92
2022/12/20 02:00:01;;;;;;;;;;;;;;;;;;4960329;28;19949;-92
2022/12/20 02:02:27;;;;;;;;;;;;;;;;;;4960265;28;20024;-93
2022/12/20 02:04:53;;;;;;;;;;;;;;;;;;4960319;28;20024;-91
2022/12/20 02:07:19;;;;;;;;;;;;;;;;;;4960838;28;19928;-92
2022/12/20 02:09:45;;;;;;;;;;;;;;;;;;4960194;28;19968;-91
2022/12/20 02:12:11;;;;;;;;;;;;;;;;;;4976607;28;19922;-90
2022/12/20 02:14:37;;;;;;;;;;;;;;;;;;4960451;28;19925;-90
2022/12/20 02:17:03;;;;;;;;;;;;;;;;;;4976087;28;19929;-90
2022/12/20 02:19:29;;;;;;;;;;;;;;;;;;4960118;28;19922;-90
2022/12/20 02:21:55;;;;;;;;;;;;;;;;;;4960394;28;20285;-90
2022/12/20 02:24:21;;;;;;;;;;;;;;;;;;4975990;28;19948;-90
2022/12/20 02:26:46;;;;;;;;;;;;;;;;;;4976148;28;20305;-90
2022/12/20 02:29:12;;;;;;;;;;;;;;;;;;4976283;28;19928;-90
2022/12/20 02:31:38;;;;;;;;;;;;;;;;;;4959851;28;19930;-89
2022/12/20 02:34:04;;;;;;;;;;;;;;;;;;4960029;28;19922;-89
2022/12/20 02:36:30;;;;;;;;;;;;;;;;;;4976225;28;19928;-89
2022/12/20 02:38:56;;;;;;;;;;;;;;;;;;4976264;28;20412;-89
2022/12/20 02:41:22;;;;;;;;;;;;;;;;;;4976438;28;19922;-90
2022/12/20 02:46:33;;;;;;;;;;;;;;;;;;4975667;28;19969;-90
2022/12/20 02:48:58;;;;;;;;;;;;;;;;;;4959882;28;20289;-89
2022/12/20 02:51:24;;;;;;;;;;;;;;;;;;4975557;28;19921;-92
2022/12/20 02:53:50;;;;;;;;;;;;;;;;;;4975831;28;19929;-92
2022/12/20 02:56:16;;;;;;;;;;;;;;;;;;4959319;28;19933;-92
2022/12/20 02:58:42;;;;;;;;;;;;;;;;;;4959342;28;19960;-91
2022/12/20 03:01:08;;;;;;;;;;;;;;;;;;4959699;28;19921;-91
2022/12/20 03:03:34;;;;;;;;;;;;;;;;;;4959586;28;19922;-90
2022/12/20 03:06:00;;;;;;;;;;;;;;;;;;4975696;28;19952;-91
2022/12/20 03:08:26;;;;;;;;;;;;;;;;;;4959455;28;20296;-90
2022/12/20 03:10:52;;;;;;;;;;;;;;;;;;4975707;28;20025;-91
2022/12/20 03:13:18;;;;;;;;;;;;;;;;;;4959438;28;19922;-91
2022/12/20 03:15:44;;;;;;;;;;;;;;;;;;4959508;28;19921;-89
2022/12/20 03:18:09;;;;;;;;;;;;;;;;;;4959449;28;19922;-90
2022/12/20 03:20:35;;;;;;;;;;;;;;;;;;4975344;28;19921;-90
2022/12/20 03:23:01;;;;;;;;;;;;;;;;;;4975498;28;20293;-90
2022/12/20 03:25:27;;;;;;;;;;;;;;;;;;4959247;28;19926;-90
2022/12/20 03:27:53;;;;;;;;;;;;;;;;;;4975282;28;19937;-90
2022/12/20 03:30:19;;;;;;;;;;;;;;;;;;4959217;28;19945;-89
2022/12/20 03:32:45;;;;;;;;;;;;;;;;;;4975048;28;19930;-90
2022/12/20 03:35:11;;;;;;;;;;;;;;;;;;4975628;28;20013;-89
2022/12/20 03:37:37;;;;;;;;;;;;;;;;;;4979238;28;20369;-89
2022/12/20 03:40:03;;;;;;;;;;;;;;;;;;4979013;28;19922;-89
2022/12/20 03:42:29;;;;;;;;;;;;;;;;;;4962870;28;19972;-90
2022/12/20 03:44:54;;;;;;;;;;;;;;;;;;4979165;28;20031;-89
2022/12/20 03:47:20;;;;;;;;;;;;;;;;;;4979156;28;20472;-89
2022/12/20 03:49:46;;;;;;;;;;;;;;;;;;4962709;28;20020;-90
2022/12/20 03:52:12;;;;;;;;;;;;;;;;;;4962614;28;19928;-90
2022/12/20 03:54:38;;;;;;;;;;;;;;;;;;4978788;28;19922;-90
2022/12/20 03:57:04;;;;;;;;;;;;;;;;;;4962526;28;19928;-91
2022/12/20 03:59:30;;;;;;;;;;;;;;;;;;4962891;28;19922;-91
2022/12/20 04:01:56;;;;;;;;;;;;;;;;;;4963025;28;20378;-91
2022/12/20 04:04:22;;;;;;;;;;;;;;;;;;4962644;28;20360;-91
2022/12/20 04:06:48;;;;;;;;;;;;;;;;;;4962565;28;20004;-91
2022/12/20 04:09:13;;;;;;;;;;;;;;;;;;4978790;28;19922;-91
2022/12/20 04:11:39;;;;;;;;;;;;;;;;;;4962268;28;20381;-90
2022/12/20 04:14:05;;;;;;;;;;;;;;;;;;4962584;28;19922;-91
2022/12/20 04:16:31;;;;;;;;;;;;;;;;;;4962512;28;19980;-91
2022/12/20 04:18:57;;;;;;;;;;;;;;;;;;4962816;28;19922;-91
2022/12/20 04:21:23;;;;;;;;;;;;;;;;;;4962419;28;19929;-91
2022/12/20 04:23:49;;;;;;;;;;;;;;;;;;4962278;28;20007;-90
2022/12/20 04:26:15;;;;;;;;;;;;;;;;;;4978661;28;19926;-90
2022/12/20 04:28:41;;;;;;;;;;;;;;;;;;4978775;28;19980;-91
2022/12/20 04:31:07;;;;;;;;;;;;;;;;;;4963112;28;19953;-90
2022/12/20 04:33:33;;;;;;;;;;;;;;;;;;4962205;28;19968;-91
2022/12/20 04:35:59;;;;;;;;;;;;;;;;;;4962054;28;19925;-90
2022/12/20 04:38:25;;;;;;;;;;;;;;;;;;4962216;28;19980;-91
2022/12/20 04:40:51;;;;;;;;;;;;;;;;;;4961859;28;20337;-90
2022/12/20 04:43:17;;;;;;;;;;;;;;;;;;4962100;28;19948;-91
2022/12/20 04:45:43;;;;;;;;;;;;;;;;;;4961995;28;19926;-90
2022/12/20 04:48:09;;;;;;;;;;;;;;;;;;4961500;28;19925;-90
2022/12/20 04:50:34;;;;;;;;;;;;;;;;;;4961684;28;20017;-91
2022/12/20 04:55:45;;;;;;;;;;;;;;;;;;4977962;28;19922;-90
2022/12/20 04:58:11;;;;;;;;;;;;;;;;;;4961467;28;19941;-90
2022/12/20 05:00:37;;;;;;;;;;;;;;;;;;4961689;28;19928;-90
2022/12/20 05:03:03;;;;;;;;;;;;;;;;;;4961712;28;20258;-91
2022/12/20 05:05:29;;;;;;;;;;;;;;;;;;4977746;28;19994;-90
2022/12/20 05:07:55;;;;;;;;;;;;;;;;;;4961247;28;19922;-90
2022/12/20 05:10:21;;;;;;;;;;;;;;;;;;4977566;28;19922;-90
2022/12/20 05:12:47;;;;;;;;;;;;;;;;;;4977322;28;20028;-91
2022/12/20 05:15:13;;;;;;;;;;;;;;;;;;4977308;28;19968;-91
2022/12/20 05:17:39;;;;;;;;;;;;;;;;;;4961216;28;19922;-91
2022/12/20 05:20:05;;;;;;;;;;;;;;;;;;4977600;28;19921;-90
2022/12/20 05:28:00;;;;;;;;;;;;;;;;;;4977067;28;19925;-91
2022/12/20 05:30:26;;;;;;;;;;;;;;;;;;4960674;28;19937;-90
2022/12/20 05:32:52;;;;;;;;;;;;;;;;;;4960622;28;20058;-90
2022/12/20 05:35:18;;;;;;;;;;;;;;;;;;4960684;28;19922;-90
2022/12/20 05:37:44;;;;;;;;;;;;;;;;;;4976815;28;19922;-91
2022/12/20 05:40:10;;;;;;;;;;;;;;;;;;4960760;28;20384;-91
2022/12/20 05:42:36;;;;;;;;;;;;;;;;;;4960535;28;19928;-91
2022/12/20 05:45:02;;;;;;;;;;;;;;;;;;4960550;28;19972;-90
2022/12/20 05:47:32;;;;;;;;;;;;;;;;;;4960688;28;19922;-91
2022/12/20 05:49:58;;;;;;;;;;;;;;;;;;4960707;28;20208;-92
2022/12/20 05:52:24;;;;;;;;;;;;;;;;;;4960440;28;20136;-91
2022/12/20 05:54:50;;;;;;;;;;;;;;;;;;4960507;28;19955;-92
2022/12/20 05:57:16;;;;;;;;;;;;;;;;;;4960468;28;19922;-92
2022/12/20 05:59:42;;;;;;;;;;;;;;;;;;4975430;28;20358;-92
2022/12/20 06:02:09;;;;;;;;;;;;;;;;;;4960237;28;19921;-92
2022/12/20 06:04:35;;;;;;;;;;;;;;;;;;4960228;28;20021;-91
2022/12/20 06:07:01;;;;;;;;;;;;;;;;;;4960360;28;19975;-91
2022/12/20 06:09:27;;;;;;;;;;;;;;;;;;4960133;28;19926;-93
2022/12/20 06:11:53;;;;;;;;;;;;;;;;;;4976680;28;19925;-91
2022/12/20 06:14:19;;;;;;;;;;;;;;;;;;4960358;28;20408;-92
2022/12/20 06:16:45;;;;;;;;;;;;;;;;;;4960100;28;19965;-91
2022/12/20 06:19:11;;;;;;;;;;;;;;;;;;4976345;28;19922;-92
2022/12/20 06:21:37;;;;;;;;;;;;;;;;;;4959704;28;19921;-92
2022/12/20 06:24:03;;;;;;;;;;;;;;;;;;4960404;28;20353;-93
2022/12/20 06:26:34;;;;;;;;;;;;;;;;;;4960256;28;19921;-92
2022/12/20 06:29:01;;;;;;;;;;;;;;;;;;4959871;28;19922;-93
2022/12/20 06:31:26;;;;;;;;;;;;;;;;;;4959543;28;20432;-91
2022/12/20 06:33:52;;;;;;;;;;;;;;;;;;4959774;28;20019;-91
2022/12/20 06:36:18;;;;;;;;;;;;;;;;;;4976071;28;19973;-92
2022/12/20 06:38:44;;;;;;;;;;;;;;;;;;4959604;28;19965;-92
2022/12/20 06:41:10;;;;;;;;;;;;;;;;;;4959800;28;19929;-92
2022/12/20 06:43:36;;;;;;;;;;;;;;;;;;4959710;28;19955;-93
2022/12/20 06:46:02;;;;;;;;;;;;;;;;;;4959853;28;19972;-91
2022/12/20 06:48:28;;;;;;;;;;;;;;;;;;4959634;28;19949;-92
2022/12/20 06:50:54;;;;;;;;;;;;;;;;;;4959564;28;19922;-92
2022/12/20 06:53:20;;;;;;;;;;;;;;;;;;4959698;28;20020;-92
2022/12/20 06:55:46;;;;;;;;;;;;;;;;;;4959610;28;19933;-92
2022/12/20 06:58:12;;;;;;;;;;;;;;;;;;4959338;28;19925;-91
2022/12/20 07:00:38;;;;;;;;;;;;;;;;;;4959469;28;20021;-90
2022/12/20 07:03:04;;;;;;;;;;;;;;;;;;4975545;28;19922;-92
2022/12/20 07:05:30;;;;;;;;;;;;;;;;;;4959414;28;19933;-91
2022/12/20 07:07:56;;;;;;;;;;;;;;;;;;4959459;28;19930;-91
2022/12/20 07:10:22;;;;;;;;;;;;;;;;;;4961087;28;19929;-91
2022/12/20 07:12:48;;;;;;;;;;;;;;;;;;4963261;28;19926;-92
2022/12/20 07:15:14;;;;;;;;;;;;;;;;;;4963291;28;19972;-92
2022/12/20 07:17:40;;;;;;;;;;;;;;;;;;4963612;28;19922;-92
2022/12/20 07:20:06;;;;;;;;;;;;;;;;;;4980055;28;20410;-92
2022/12/20 07:22:33;;;;;;;;;;;;;;;;;;4963342;28;19988;-91
2022/12/20 07:24:59;;;;;;;;;;;;;;;;;;4963305;28;20096;-94
2022/12/20 07:27:25;;;;;;;;;;;;;;;;;;4979366;28;20086;-93
2022/12/20 07:29:51;;;;;;;;;;;;;;;;;;4963620;28;20017;-92
2022/12/20 07:32:17;;;;;;;;;;;;;;;;;;4963073;28;20016;-92
2022/12/20 07:34:43;;;;;;;;;;;;;;;;;;4963321;28;19922;-90
2022/12/20 07:37:09;;;;;;;;;;;;;;;;;;4963464;28;19925;-91
2022/12/20 07:39:35;;;;;;;;;;;;;;;;;;4963049;28;20325;-90
2022/12/20 07:42:01;;;;;;;;;;;;;;;;;;4963042;28;20351;-91
2022/12/20 07:44:26;;;;;;;;;;;;;;;;;;4963339;28;20025;-93
2022/12/20 07:46:53;;;;;;;;;;;;;;;;;;4962994;28;19929;-93
2022/12/20 07:49:21;;;;;;;;;;;;;;;;;;4980149;28;19975;-94
2022/12/20 07:51:48;;;;;;;;;;;;;;;;;;4979902;28;20341;-93
2022/12/20 07:54:14;;;;;;;;;;;;;;;;;;4962651;28;20004;-90
2022/12/20 07:56:40;;;;;;;;;;;;;;;;;;4962856;28;19976;-90
2022/12/20 07:59:06;;;;;;;;;;;;;;;;;;4962631;28;19922;-89
2022/12/20 08:01:31;;;;;;;;;;;;;;;;;;4962400;28;19922;-90
2022/12/20 08:03:57;;;;;;;;;;;;;;;;;;4963018;28;19922;-90
2022/12/20 08:06:23;;;;;;;;;;;;;;;;;;4962379;28;20289;-90
2022/12/20 08:08:49;;;;;;;;;;;;;;;;;;4962533;28;19921;-91
2022/12/20 08:11:15;;;;;;;;;;;;;;;;;;4962240;28;19976;-92
2022/12/20 08:13:41;;;;;;;;;;;;;;;;;;4962636;28;19930;-92
2022/12/20 08:16:07;;;;;;;;;;;;;;;;;;4978628;28;20079;-91
2022/12/20 08:18:36;;;;;;;;;;;;;;;;;;4963078;28;19929;-96
2022/12/20 08:21:05;;;;;;;;;;;;;;;;;;5078494;23;19926;-94
2022/12/20 08:23:31;;;;;;;;;;;;;;;;;;4978297;28;19926;-92
2022/12/20 08:25:57;;;;;;;;;;;;;;;;;;4978517;28;20001;-93
2022/12/20 08:28:23;;;;;;;;;;;;;;;;;;4977710;28;19925;-93
2022/12/20 08:30:49;;;;;;;;;;;;;;;;;;4958905;28;19922;-93
2022/12/20 08:33:15;;;;;;;;;;;;;;;;;;4959467;28;19969;-93
2022/12/20 08:35:42;;;;;;;;;;;;;;;;;;4964243;28;19926;-94
2022/12/20 08:38:08;;;;;;;;;;;;;;;;;;4975439;28;19929;-93
2022/12/20 08:40:37;;;;;;;;;;;;;;;;;;4960586;28;20001;-94
2022/12/20 08:43:03;;;;;;;;;;;;;;;;;;4968728;28;19976;-94
2022/12/20 08:45:29;;;;;;;;;;;;;;;;;;4958574;28;20382;-93
2022/12/20 08:47:55;;;;;;;;;;;;;;;;;;4975006;28;19922;-94
2022/12/20 08:50:21;;;;;;;;;;;;;;;;;;4975201;28;19926;-94
2022/12/20 08:52:47;;;;;;;;;;;;;;;;;;4974802;28;20432;-93
2022/12/20 08:55:13;;;;;;;;;;;;;;;;;;4974784;28;19973;-93
2022/12/20 08:57:39;;;;;;;;;;;;;;;;;;4965169;28;19922;-94
2022/12/20 09:00:08;;;;;;;;;;;;;;;;;;4977589;28;19922;-94
2022/12/20 09:02:34;;;;;;;;;;;;;;;;;;4976483;28;19926;-94
2022/12/20 09:05:00;;;;;;;;;;;;;;;;;;4990601;28;20329;-95
2022/12/20 09:07:27;;;;;;;;;;;;;;;;;;4958819;28;19948;-95
2022/12/20 09:09:53;;;;;;;;;;;;;;;;;;4974858;28;20365;-94
2022/12/20 09:12:26;;;;;;;;;;;;;;;;;;4959574;28;19929;-96
2022/12/20 09:15:02;;;;;;;;;;;;;;;;;;4969808;28;19926;-96
2022/12/20 09:17:37;;;;;;;;;;;;;;;;;;4957397;28;20430;-91
2022/12/20 09:20:04;;;;;;;;;;;;;;;;;;4973586;28;19965;-94
2022/12/20 09:22:31;;;;;;;;;;;;;;;;;;4973661;28;19930;-93
2022/12/20 09:24:57;;;;;;;;;;;;;;;;;;4973847;28;19934;-91
2022/12/20 09:27:26;;;;;;;;;;;;;;;;;;4973322;28;20008;-92
2022/12/20 09:29:51;;;;;;;;;;;;;;;;;;4973718;28;19965;-94
2022/12/20 09:32:17;;;;;;;;;;;;;;;;;;4973206;28;20125;-90
2022/12/20 09:34:43;;;;;;;;;;;;;;;;;;4975157;28;19923;-90
2022/12/20 09:37:09;;;;;;;;;;;;;;;;;;4957309;28;20023;-92
2022/12/20 09:39:35;;;;;;;;;;;;;;;;;;4957539;28;19930;-91
2022/12/20 09:42:01;;;;;;;;;;;;;;;;;;4957324;28;19925;-91
2022/12/20 09:44:27;;;;;;;;;;;;;;;;;;4956944;28;20029;-91
2022/12/20 09:46:53;;;;;;;;;;;;;;;;;;4957053;28;20046;-90
2022/12/20 09:49:19;;;;;;;;;;;;;;;;;;4957214;28;19969;-90
2022/12/20 09:51:45;;;;;;;;;;;;;;;;;;4956417;28;19926;-90
2022/12/20 09:54:11;;;;;;;;;;;;;;;;;;4957030;28;19933;-91
2022/12/20 09:56:37;;;;;;;;;;;;;;;;;;4956892;28;19990;-90
2022/12/20 09:59:03;;;;;;;;;;;;;;;;;;4956991;28;19977;-89
2022/12/20 10:01:29;;;;;;;;;;;;;;;;;;4956639;28;20013;-90
2022/12/20 10:03:55;;;;;;;;;;;;;;;;;;4956813;28;19969;-90
2022/12/20 10:06:21;;;;;;;;;;;;;;;;;;4956936;28;19930;-91
2022/12/20 10:08:47;;;;;;;;;;;;;;;;;;4989164;28;19929;-93
2022/12/20 10:11:13;;;;;;;;;;;;;;;;;;4973204;28;19926;-91
2022/12/20 10:13:39;;;;;;;;;;;;;;;;;;4972899;28;20405;-90
2022/12/20 10:16:05;;;;;;;;;;;;;;;;;;4972596;28;19922;-89
2022/12/20 10:18:31;;;;;;;;;;;;;;;;;;4956396;28;20259;-90
2022/12/20 10:20:57;;;;;;;;;;;;;;;;;;4972977;28;19950;-88
2022/12/20 10:23:23;;;;;;;;;;;;;;;;;;4974521;28;19926;-91
2022/12/20 10:25:49;;;;;;;;;;;;;;;;;;4974465;28;20445;-89
2022/12/20 10:28:14;;;;;;;;;;;;;;;;;;4974081;28;19961;-90
2022/12/20 10:30:40;;;;;;;;;;;;;;;;;;4980307;28;19963;-89
2022/12/20 10:33:07;;;;;;;;;;;;;;;;;;4992475;28;19926;-90
2022/12/20 10:35:33;;;;;;;;;;;;;;;;;;4992659;28;20219;-89
2022/12/20 10:37:58;;;;;;;;;;;;;;;;;;4992609;28;19929;-90
2022/12/20 10:40:24;;;;;;;;;;;;;;;;;;4992041;28;19922;-90
2022/12/20 10:42:50;;;;;;;;;;;;;;;;;;4992028;28;19921;-90
2022/12/20 10:45:16;;;;;;;;;;;;;;;;;;4991650;28;19933;-90
2022/12/20 10:47:42;;;;;;;;;;;;;;;;;;4991958;28;19968;-90
2022/12/20 10:50:08;;;;;;;;;;;;;;;;;;4991831;28;19922;-88
2022/12/20 10:52:34;;;;;;;;;;;;;;;;;;4976199;28;20285;-88
2022/12/20 10:55:00;;;;;;;;;;;;;;;;;;4992200;28;19937;-88
2022/12/20 10:57:26;;;;;;;;;;;;;;;;;;4992010;28;19929;-89
2022/12/20 10:59:52;;;;;;;;;;;;;;;;;;4993733;28;19922;-91
2022/12/20 11:02:18;;;;;;;;;;;;;;;;;;4981490;28;20008;-87
2022/12/20 11:04:44;;;;;;;;;;;;;;;;;;4980901;28;20039;-88
2022/12/20 11:07:10;;;;;;;;;;;;;;;;;;4976583;28;19921;-89
2022/12/20 11:09:36;;;;;;;;;;;;;;;;;;4975431;28;20048;-89
2022/12/20 11:12:02;;;;;;;;;;;;;;;;;;4975395;28;19956;-89
2022/12/20 11:14:28;;;;;;;;;;;;;;;;;;4975403;28;19965;-90
2022/12/20 11:16:54;;;;;;;;;;;;;;;;;;4975459;28;19969;-89
2022/12/20 11:19:20;;;;;;;;;;;;;;;;;;4992000;28;20309;-91
2022/12/20 11:21:46;;;;;;;;;;;;;;;;;;4991743;28;20397;-89
2022/12/20 11:24:11;;;;;;;;;;;;;;;;;;4991420;28;19922;-89
2022/12/20 11:26:37;;;;;;;;;;;;;;;;;;4991493;28;20016;-89
2022/12/20 11:29:03;;;;;;;;;;;;;;;;;;4991244;28;20005;-89
2022/12/20 11:31:29;;;;;;;;;;;;;;;;;;4991300;28;19922;-90
2022/12/20 11:33:55;;;;;;;;;;;;;;;;;;4991446;28;19922;-90
2022/12/20 11:36:21;;;;;;;;;;;;;;;;;;4991375;28;19926;-89
2022/12/20 11:38:47;;;;;;;;;;;;;;;;;;4975431;28;19929;-90
2022/12/20 11:41:13;;;;;;;;;;;;;;;;;;4975338;28;19949;-89
2022/12/20 11:43:39;;;;;;;;;;;;;;;;;;4975275;28;20266;-96
2022/12/20 11:46:05;;;;;;;;;;;;;;;;;;4974778;28;19933;-91
2022/12/20 11:48:31;;;;;;;;;;;;;;;;;;4975498;28;19925;-92
2022/12/20 11:50:57;;;;;;;;;;;;;;;;;;4991562;28;20385;-90
2022/12/20 11:53:23;;;;;;;;;;;;;;;;;;4975850;28;19922;-91
2022/12/20 11:55:50;;;;;;;;;;;;;;;;;;4975455;28;20377;-91
2022/12/20 11:58:16;;;;;;;;;;;;;;;;;;4978627;28;19922;-91
2022/12/20 12:00:42;;;;;;;;;;;;;;;;;;4978898;28;20441;-92
2022/12/20 12:03:09;;;;;;;;;;;;;;;;;;4978885;28;20571;-91
2022/12/20 12:05:35;;;;;;;;;;;;;;;;;;4994858;28;20428;-90
2022/12/20 12:08:01;;;;;;;;;;;;;;;;;;4994887;28;19925;-91
2022/12/20 12:10:27;;;;;;;;;;;;;;;;;;4994842;28;19999;-91
2022/12/20 12:12:52;;;;;;;;;;;;;;;;;;4994759;28;19926;-91
2022/12/20 12:15:18;;;;;;;;;;;;;;;;;;4994993;28;19922;-91
2022/12/20 12:17:44;;;;;;;;;;;;;;;;;;4995128;28;19922;-90
2022/12/20 12:20:10;;;;;;;;;;;;;;;;;;4994958;28;19922;-90
2022/12/20 12:22:36;;;;;;;;;;;;;;;;;;4994763;28;20016;-91
2022/12/20 12:25:02;;;;;;;;;;;;;;;;;;4978899;28;20362;-91
2022/12/20 12:27:28;;;;;;;;;;;;;;;;;;4994714;28;19977;-92
2022/12/20 12:29:55;;;;;;;;;;;;;;;;;;4978485;28;20379;-91
2022/12/20 12:32:21;;;;;;;;;;;;;;;;;;4971790;28;19932;-90
2022/12/20 12:34:46;;;;;;;;;;;;;;;;;;4972375;28;20005;-91
2022/12/20 12:37:12;;;;;;;;;;;;;;;;;;5010883;28;19980;-90
2022/12/20 12:39:38;;;;;;;;;;;;;;;;;;4994456;28;19956;-90
2022/12/20 12:42:05;;;;;;;;;;;;;;;;;;4994462;28;19923;-90
2022/12/20 12:44:31;;;;;;;;;;;;;;;;;;4978199;28;19926;-90
2022/12/20 12:46:57;;;;;;;;;;;;;;;;;;4978157;28;19968;-91
2022/12/20 12:49:23;;;;;;;;;;;;;;;;;;4977840;28;20005;-91
2022/12/20 12:51:49;;;;;;;;;;;;;;;;;;4978082;28;19921;-91
2022/12/20 12:54:15;;;;;;;;;;;;;;;;;;4977992;28;19922;-90
2022/12/20 12:56:41;;;;;;;;;;;;;;;;;;4994352;28;20270;-90
2022/12/20 12:59:09;;;;;;;;;;;;;;;;;;4977431;28;23875;-90
2022/12/20 13:01:35;;;;;;;;;;;;;;;;;;4994009;28;20448;-91
2022/12/20 13:04:01;;;;;;;;;;;;;;;;;;4994441;28;19925;-90
2022/12/20 13:06:27;;;;;;;;;;;;;;;;;;4994166;28;20480;-90
2022/12/20 13:08:53;;;;;;;;;;;;;;;;;;4993476;28;20026;-91
2022/12/20 13:11:19;;;;;;;;;;;;;;;;;;4994228;28;19984;-91
2022/12/20 13:13:44;;;;;;;;;;;;;;;;;;4994112;28;19944;-91
2022/12/20 13:16:10;;;;;;;;;;;;;;;;;;4994084;28;20258;-90
2022/12/20 13:18:36;;;;;;;;;;;;;;;;;;4994137;28;19921;-91
2022/12/20 13:21:02;;;;;;;;;;;;;;;;;;4993876;28;19922;-90
2022/12/20 13:23:29;;;;;;;;;;;;;;;;;;4993620;28;20465;-91
2022/12/20 13:25:56;;;;;;;;;;;;;;;;;;4993965;28;19926;-90
2022/12/20 13:28:22;;;;;;;;;;;;;;;;;;4994016;28;19922;-93
2022/12/20 13:30:48;;;;;;;;;;;;;;;;;;4993811;28;20365;-93
2022/12/20 13:33:14;;;;;;;;;;;;;;;;;;4994387;28;20400;-92
2022/12/20 13:35:39;;;;;;;;;;;;;;;;;;4993601;28;19922;-92
2022/12/20 13:38:05;;;;;;;;;;;;;;;;;;4993321;28;19928;-91
2022/12/20 13:40:31;;;;;;;;;;;;;;;;;;4993321;28;19936;-92
2022/12/20 13:42:57;;;;;;;;;;;;;;;;;;4993494;28;19921;-92
2022/12/20 13:45:24;;;;;;;;;;;;;;;;;;4993165;28;19930;-91
2022/12/20 13:47:50;;;;;;;;;;;;;;;;;;4977120;28;19928;-91
2022/12/20 13:50:16;;;;;;;;;;;;;;;;;;4977166;28;19922;-91
2022/12/20 13:52:42;;;;;;;;;;;;;;;;;;4976598;28;19929;-91
2022/12/20 13:55:08;;;;;;;;;;;;;;;;;;4993315;28;20297;-93
2022/12/20 13:57:34;;;;;;;;;;;;;;;;;;4976928;28;19922;-92
2022/12/20 14:00:00;;;;;;;;;;;;;;;;;;4993244;28;19945;-92
2022/12/20 14:02:28;;;;;;;;;;;;;;;;;;4993209;28;19921;-91
2022/12/20 14:04:54;;;;;;;;;;;;;;;;;;4992976;28;19949;-91
2022/12/20 14:07:20;;;;;;;;;;;;;;;;;;4992762;28;19949;-91
2022/12/20 14:09:46;;;;;;;;;;;;;;;;;;4993085;28;19922;-91
2022/12/20 14:12:12;;;;;;;;;;;;;;;;;;4992860;28;19929;-93
2022/12/20 14:14:38;;;;;;;;;;;;;;;;;;4993003;28;19980;-92
2022/12/20 14:17:10;;;;;;;;;;;;;;;;;;4976714;28;19928;-93
2022/12/20 14:19:36;;;;;;;;;;;;;;;;;;4976054;28;19945;-93
2022/12/20 14:22:03;;;;;;;;;;;;;;;;;;4992214;28;19930;-92
2022/12/20 14:24:29;;;;;;;;;;;;;;;;;;4992735;28;19922;-93
2022/12/20 14:26:55;;;;;;;;;;;;;;;;;;4977029;28;19989;-93
2022/12/20 14:29:24;;;;;;;;;;;;;;;;;;4992780;28;19922;-93
2022/12/20 14:31:50;;;;;;;;;;;;;;;;;;4992826;28;19929;-92
2022/12/20 14:34:15;;;;;;;;;;;;;;;;;;4976445;28;19922;-93
2022/12/20 14:36:41;;;;;;;;;;;;;;;;;;4992619;28;20167;-93
2022/12/20 14:39:07;;;;;;;;;;;;;;;;;;4992983;28;19922;-94
2022/12/20 14:41:34;;;;;;;;;;;;;;;;;;4993162;28;19985;-93
2022/12/20 14:43:59;;;;;;;;;;;;;;;;;;4992650;28;19929;-92
2022/12/20 14:46:25;;;;;;;;;;;;;;;;;;4992814;28;19926;-94
2022/12/20 14:48:51;;;;;;;;;;;;;;;;;;4992618;28;19973;-92
2022/12/20 14:51:21;;;;;;;;;;;;;;;;;;5010533;28;19929;-96
2022/12/20 14:53:47;;;;;;;;;;;;;;;;;;4978411;28;19921;-93
2022/12/20 14:56:13;;;;;;;;;;;;;;;;;;4979853;28;19932;-90
2022/12/20 14:58:39;;;;;;;;;;;;;;;;;;4977708;28;20272;-89
2022/12/20 15:01:05;;;;;;;;;;;;;;;;;;5003656;28;19910;-89
2022/12/20 15:03:31;;;;;;;;;;;;;;;;;;5015989;28;20064;-88
2022/12/20 15:05:57;;;;;;;;;;;;;;;;;;4999277;28;19930;-89
2022/12/20 15:08:23;;;;;;;;;;;;;;;;;;4978754;28;19929;-90
2022/12/20 15:10:49;;;;;;;;;;;;;;;;;;4977149;28;19930;-90
2022/12/20 15:13:15;;;;;;;;;;;;;;;;;;4991654;28;19928;-90
2022/12/20 15:15:41;;;;;;;;;;;;;;;;;;4991069;28;19926;-89
2022/12/20 15:18:07;;;;;;;;;;;;;;;;;;4991597;28;19921;-90
2022/12/20 15:20:33;;;;;;;;;;;;;;;;;;4991580;28;19976;-91
2022/12/20 15:22:59;;;;;;;;;;;;;;;;;;4975290;28;19926;-90
2022/12/20 15:25:25;;;;;;;;;;;;;;;;;;4975145;28;19926;-90
2022/12/20 15:27:51;;;;;;;;;;;;;;;;;;4975493;28;19977;-88
2022/12/20 15:30:17;;;;;;;;;;;;;;;;;;4991465;28;19922;-88
2022/12/20 15:32:43;;;;;;;;;;;;;;;;;;4994755;28;19922;-87
2022/12/20 15:35:09;;;;;;;;;;;;;;;;;;4995253;28;19926;-86
2022/12/20 15:37:35;;;;;;;;;;;;;;;;;;4995201;28;19921;-87
2022/12/20 15:40:02;;;;;;;;;;;;;;;;;;4995061;28;19925;-87
2022/12/20 15:42:28;;;;;;;;;;;;;;;;;;4978753;28;19976;-87
2022/12/20 15:44:54;;;;;;;;;;;;;;;;;;4994742;28;19969;-88
2022/12/20 15:47:20;;;;;;;;;;;;;;;;;;4994935;28;19921;-87
2022/12/20 15:49:46;;;;;;;;;;;;;;;;;;4994917;28;20310;-88
2022/12/20 15:52:12;;;;;;;;;;;;;;;;;;4978500;28;19922;-88
2022/12/20 15:54:38;;;;;;;;;;;;;;;;;;4978563;28;19922;-88
2022/12/20 15:57:06;;;;;;;;;;;;;;;;;;4994740;28;19922;-88
2022/12/20 15:59:32;;;;;;;;;;;;;;;;;;4978320;28;19926;-88
2022/12/20 16:01:58;;;;;;;;;;;;;;;;;;4978436;28;20008;-90
2022/12/20 16:04:23;;;;;;;;;;;;;;;;;;4994998;28;19921;-88
2022/12/20 16:06:53;;;;;;;;;;;;;;;;;;4994996;28;19993;-87
2022/12/20 16:09:19;;;;;;;;;;;;;;;;;;4978676;28;19944;-88
2022/12/20 16:11:45;;;;;;;;;;;;;;;;;;4978219;28;20021;-87
2022/12/20 16:14:11;;;;;;;;;;;;;;;;;;4978207;28;20012;-87
2022/12/20 16:16:37;;;;;;;;;;;;;;;;;;4978506;28;20072;-87
2022/12/20 16:19:03;;;;;;;;;;;;;;;;;;4978142;28;20435;-87
2022/12/20 16:21:29;;;;;;;;;;;;;;;;;;4978053;28;19926;-87
2022/12/20 16:23:55;;;;;;;;;;;;;;;;;;4978080;28;19937;-86
2022/12/20 16:26:21;;;;;;;;;;;;;;;;;;4994085;28;20337;-87
2022/12/20 16:28:47;;;;;;;;;;;;;;;;;;4977712;28;20377;-88
2022/12/20 16:31:13;;;;;;;;;;;;;;;;;;4977762;28;19921;-87
2022/12/20 16:33:39;;;;;;;;;;;;;;;;;;4994021;28;19922;-87
2022/12/20 16:36:05;;;;;;;;;;;;;;;;;;5011796;28;19928;-88
2022/12/20 16:38:31;;;;;;;;;;;;;;;;;;4979771;28;19926;-90
2022/12/20 16:40:57;;;;;;;;;;;;;;;;;;4977944;28;19922;-89
2022/12/20 16:43:23;;;;;;;;;;;;;;;;;;4993674;28;19928;-88
2022/12/20 16:45:48;;;;;;;;;;;;;;;;;;4993604;28;19933;-91
2022/12/20 16:48:14;;;;;;;;;;;;;;;;;;4977783;28;19971;-90